createdAt,value
2019-02-07T09:48:21.683Z,42.10
2019-02-07T09:50:47.625Z,42.30
2019-02-07T09:53:23.804Z,41.20
2019-02-07T09:55:44.171Z,40.50
2019-02-07T09:58:11.570Z,40.50
2019-02-07T10:00:39.393Z,39.40
2019-02-07T10:03:06.791Z,38.60
2019-02-07T10:05:34.197Z,38.10
2019-02-07T10:08:01.597Z,37.80
2019-02-07T10:10:29.019Z,37.60
2019-02-07T10:12:56.430Z,37.30
2019-02-07T10:15:23.834Z,37.00
2019-02-07T10:17:51.518Z,36.80
2019-02-07T10:20:18.914Z,36.60
2019-02-07T10:22:46.326Z,36.60
2019-02-07T10:25:13.723Z,36.80
2019-02-07T10:27:41.158Z,36.40
2019-02-07T10:30:12.003Z,36.20
2019-02-07T10:32:39.417Z,36.10
2019-02-07T10:35:08.170Z,36.10
2019-02-07T10:37:35.578Z,36.00
2019-02-07T10:40:06.277Z,35.80
2019-02-07T10:42:33.766Z,35.70
2019-02-07T10:45:01.166Z,35.80
2019-02-07T10:47:30.447Z,35.80
2019-02-07T10:49:59.576Z,35.80
2019-02-07T10:52:26.829Z,35.80
2019-02-07T10:54:54.223Z,35.70
2019-02-07T10:57:21.630Z,36.20
2019-02-07T11:03:06.018Z,35.60
2019-02-07T11:05:33.415Z,37.80
2019-02-07T11:08:00.821Z,38.30
2019-02-07T11:10:28.248Z,38.00
2019-02-07T11:12:56.101Z,38.20
2019-02-07T11:15:23.497Z,37.90
2019-02-07T11:17:50.906Z,37.80
2019-02-07T11:20:18.302Z,38.00
2019-02-07T11:22:45.715Z,38.10
2019-02-07T11:25:13.155Z,38.30
2019-02-07T11:27:42.363Z,38.30
2019-02-07T11:30:12.677Z,38.30
2019-02-07T11:32:40.089Z,39.40
2019-02-07T11:35:07.487Z,38.60
2019-02-07T11:37:34.922Z,38.90
2019-02-07T11:40:02.315Z,38.60
2019-02-07T11:42:29.723Z,38.30
2019-02-07T11:44:57.599Z,38.10
2019-02-07T11:47:25.009Z,37.80
2019-02-07T11:49:52.417Z,37.90
2019-02-07T11:52:21.369Z,37.70
2019-02-07T11:54:48.764Z,37.70
2019-02-07T11:57:16.159Z,37.60
2019-02-07T11:59:43.585Z,37.50
2019-02-07T12:02:11.354Z,37.40
2019-02-07T12:04:38.762Z,37.40
2019-02-07T12:07:06.157Z,37.50
2019-02-07T12:09:34.542Z,37.40
2019-02-07T12:12:01.938Z,38.30
2019-02-07T12:14:29.346Z,37.90
2019-02-07T12:16:56.746Z,37.90
2019-02-07T12:19:24.605Z,38.00
2019-02-07T12:21:52.674Z,38.20
2019-02-07T12:24:20.085Z,37.80
2019-02-07T12:26:47.482Z,38.20
2019-02-07T12:29:14.923Z,37.80
2019-02-07T12:31:42.362Z,37.80
2019-02-07T12:34:10.894Z,37.70
2019-02-07T12:36:38.889Z,37.60
2019-02-07T12:39:07.342Z,37.40
2019-02-07T12:41:34.737Z,37.60
2019-02-07T12:44:02.331Z,37.50
2019-02-07T12:46:29.732Z,37.10
2019-02-07T12:48:57.141Z,36.90
2019-02-07T12:51:24.538Z,37.00
2019-02-07T12:53:52.325Z,37.20
2019-02-07T12:56:19.722Z,37.30
2019-02-07T12:58:47.179Z,37.00
2019-02-07T13:01:14.573Z,37.50
2019-02-07T13:03:41.967Z,35.90
2019-02-07T13:06:09.381Z,36.50
2019-02-07T13:08:36.771Z,36.70
2019-02-07T13:11:04.185Z,36.90
2019-02-07T13:13:31.608Z,37.70
2019-02-07T13:15:59.155Z,38.20
2019-02-07T13:18:26.534Z,37.20
2019-02-07T13:20:53.945Z,36.40
2019-02-07T13:23:21.353Z,36.60
2019-02-07T13:25:48.770Z,35.40
2019-02-07T13:41:08.866Z,41.10
2019-02-07T13:43:36.269Z,29.90
2019-02-07T13:46:04.123Z,25.70
2019-02-07T13:48:31.526Z,25.30
2019-02-07T13:50:58.934Z,24.50
2019-02-07T13:53:26.605Z,23.90
2019-02-07T13:55:54.030Z,23.70
2019-02-07T13:58:21.478Z,17.40
2019-02-07T14:00:48.894Z,21.30
2019-02-07T14:03:16.286Z,24.40
2019-02-07T14:05:43.696Z,24.50
2019-02-07T14:08:11.090Z,24.60
2019-02-07T14:10:38.877Z,26.90
2019-02-07T14:13:06.331Z,28.60
2019-02-07T14:15:33.729Z,26.70
2019-02-07T14:18:01.279Z,25.60
2019-02-07T14:20:28.674Z,26.30
2019-02-07T14:22:56.107Z,27.30
2019-02-07T14:25:23.497Z,28.90
2019-02-07T14:27:51.394Z,30.60
2019-02-07T14:30:18.786Z,32.20
2019-02-07T14:32:46.209Z,33.80
2019-02-07T14:35:14.078Z,35.90
2019-02-07T14:37:41.488Z,35.70
2019-02-07T14:40:10.523Z,32.40
2019-02-07T14:42:38.022Z,31.20
2019-02-07T14:45:08.857Z,30.40
2019-02-07T14:47:36.282Z,30.50
2019-02-07T14:50:14.590Z,30.00
2019-02-07T14:52:33.845Z,29.90
2019-02-07T14:55:01.234Z,29.40
2019-02-07T14:57:28.770Z,29.80
2019-02-07T14:59:56.551Z,29.60
2019-02-07T15:02:24.133Z,30.60
2019-02-07T15:04:51.530Z,32.30
2019-02-07T15:07:18.939Z,31.70
2019-02-07T15:09:46.340Z,29.60
2019-02-07T15:12:13.751Z,30.40
2019-02-07T15:14:41.141Z,32.00
2019-02-07T15:17:08.561Z,33.10
2019-02-07T15:19:35.953Z,34.70
2019-02-07T15:22:03.369Z,35.90
2019-02-07T15:24:30.758Z,35.50
2019-02-07T15:26:58.180Z,35.30
2019-02-07T15:29:25.570Z,33.80
2019-02-07T15:31:52.966Z,32.80
2019-02-07T15:34:20.373Z,30.90
2019-02-07T15:36:48.216Z,29.80
2019-02-07T15:39:16.371Z,29.30
2019-02-07T15:41:43.773Z,30.40
2019-02-07T15:44:11.193Z,33.00
2019-02-07T15:46:38.596Z,33.60
2019-02-07T15:49:05.999Z,33.90
2019-02-07T15:51:33.395Z,35.10
2019-02-07T15:54:01.287Z,36.30
2019-02-07T15:56:28.681Z,36.30
2019-02-07T15:58:56.094Z,37.50
2019-02-07T16:01:23.492Z,37.30
2019-02-07T16:03:50.902Z,37.30
2019-02-07T16:06:18.298Z,38.10
2019-02-07T16:08:45.801Z,37.00
2019-02-07T16:11:13.781Z,38.30
2019-02-07T16:13:41.190Z,37.50
2019-02-07T16:16:08.586Z,37.30
2019-02-07T16:18:36.002Z,37.20
2019-02-07T16:21:03.393Z,37.50
2019-02-07T16:23:30.795Z,37.80
2019-02-07T16:25:58.210Z,38.20
2019-02-07T16:28:25.981Z,37.70
2019-02-07T16:30:53.391Z,37.60
2019-02-07T16:33:20.793Z,37.50
2019-02-07T16:35:48.199Z,37.40
2019-02-07T16:38:15.596Z,38.30
2019-02-07T16:40:43.006Z,39.10
2019-02-07T16:43:10.402Z,39.20
2019-02-07T16:45:37.813Z,39.40
2019-02-07T16:48:05.210Z,39.50
2019-02-07T16:50:34.157Z,39.70
2019-02-07T16:53:01.692Z,41.20
2019-02-07T16:55:29.136Z,41.20
2019-02-07T16:57:56.534Z,40.50
2019-02-07T17:00:26.151Z,39.90
2019-02-07T17:02:54.114Z,39.30
2019-02-07T17:05:22.870Z,39.10
2019-02-07T17:07:50.349Z,38.80
2019-02-07T17:10:26.578Z,39.70
2019-02-07T17:12:53.953Z,40.40
2019-02-07T17:15:21.366Z,40.60
2019-02-07T17:17:48.774Z,40.50
2019-02-07T17:20:27.581Z,41.60
2019-02-07T17:22:54.977Z,41.20
2019-02-07T17:25:22.394Z,41.10
2019-02-07T17:27:49.795Z,41.50
2019-02-07T17:30:21.753Z,40.50
2019-02-07T17:32:50.361Z,40.20
2019-02-07T17:35:17.826Z,40.30
2019-02-07T17:37:45.250Z,41.10
2019-02-07T17:40:18.437Z,41.70
2019-02-07T17:42:45.887Z,41.40
2019-02-07T17:45:22.008Z,41.50
2019-02-07T17:47:49.486Z,41.10
2019-02-07T17:50:19.581Z,42.10
2019-02-07T17:52:47.002Z,41.40
2019-02-07T17:55:16.866Z,40.80
2019-02-07T17:57:44.307Z,40.30
2019-02-07T18:00:23.220Z,40.20
2019-02-07T18:02:50.633Z,40.10
2019-02-07T18:05:18.056Z,41.00
2019-02-07T18:07:45.606Z,41.30
2019-02-07T18:10:13.005Z,58.60
2019-02-07T18:12:40.480Z,46.60
2019-02-07T18:15:09.461Z,39.50
2019-02-07T18:17:36.877Z,34.20
2019-02-07T18:20:13.528Z,32.40
2019-02-07T18:23:18.694Z,29.10
2019-02-07T18:25:46.559Z,28.90
2019-02-07T18:28:13.985Z,28.00
2019-02-07T18:30:41.811Z,27.40
2019-02-07T18:33:09.296Z,26.90
2019-02-07T18:35:36.701Z,26.50
2019-02-07T18:38:04.483Z,26.40
2019-02-07T18:40:31.882Z,26.10
